Time;durP1;ratioP1;P1;durP2;ratioP2;P2;SDS_P1;SDS_P2;PMS_P1;PMS_P2;Temp;Humidity;BMP_temperature;BMP_pressure;BME280_temperature;BME280_humidity;BME280_pressure;Samples;Min_cycle;Max_cycle;Signal;HPM_P1;HPM_P2
2022/06/14 00:00:57;;;;;;;9.60;3.45;;;10.80;99.90;;;;;;5046231;28;20061;-45
2022/06/14 00:03:38;;;;;;;15.95;4.38;;;10.80;99.90;;;;;;5043430;28;20156;-45
2022/06/14 00:06:09;;;;;;;12.38;4.60;;;10.80;99.90;;;;;;5041385;28;20045;-46
2022/06/14 00:08:35;;;;;;;10.45;4.00;;;10.80;99.90;;;;;;5035129;28;20045;-44
2022/06/14 00:11:06;;;;;;;12.73;5.22;;;10.70;99.90;;;;;;5042649;28;20080;-44
2022/06/14 00:13:32;;;;;;;10.73;4.13;;;10.70;99.90;;;;;;5021409;28;20195;-43
2022/06/14 00:15:57;;;;;;;8.73;3.90;;;10.60;99.90;;;;;;5041567;28;20057;-45
2022/06/14 00:18:23;;;;;;;14.77;4.75;;;10.60;99.90;;;;;;5041862;28;20408;-45
2022/06/14 00:20:49;;;;;;;13.00;4.13;;;10.60;99.90;;;;;;5041015;28;20373;-43
2022/06/14 00:23:16;;;;;;;12.75;4.22;;;10.60;99.90;;;;;;5042681;28;20045;-44
2022/06/14 00:25:46;;;;;;;11.77;3.88;;;10.50;99.90;;;;;;5042286;28;20569;-43
2022/06/14 00:28:15;;;;;;;11.18;4.38;;;10.40;99.90;;;;;;5041398;28;20053;-44
2022/06/14 00:30:43;;;;;;;10.65;4.00;;;10.40;99.90;;;;;;5041575;28;20049;-44
2022/06/14 00:33:09;;;;;;;8.18;4.38;;;10.30;99.90;;;;;;5042682;28;20055;-43
2022/06/14 00:35:35;;;;;;;12.43;4.47;;;10.30;99.90;;;;;;5042094;28;20053;-46
2022/06/14 00:38:01;;;;;;;15.88;4.72;;;10.30;99.90;;;;;;5039667;28;20676;-45
2022/06/14 00:40:30;;;;;;;9.52;4.20;;;10.30;99.90;;;;;;5038692;28;20041;-44
2022/06/14 00:42:57;;;;;;;10.98;4.55;;;10.20;99.90;;;;;;5041885;28;20495;-45
2022/06/14 00:45:22;;;;;;;11.05;4.45;;;10.20;99.90;;;;;;5041046;28;20376;-43
2022/06/14 00:48:04;;;;;;;8.80;4.70;;;10.10;99.90;;;;;;5040745;28;20045;-43
2022/06/14 00:50:44;;;;;;;7.93;4.25;;;10.00;99.90;;;;;;5040564;28;20704;-43
2022/06/14 00:53:27;;;;;;;11.25;4.63;;;10.00;99.90;;;;;;5040055;28;20075;-44
2022/06/14 00:56:04;;;;;;;7.75;4.97;;;10.00;99.90;;;;;;5040881;28;20057;-44
2022/06/14 00:58:41;;;;;;;7.00;4.28;;;10.00;99.90;;;;;;5042798;28;20065;-45
2022/06/14 01:01:13;;;;;;;10.00;4.82;;;9.90;99.90;;;;;;5040502;28;20689;-43
2022/06/14 01:03:48;;;;;;;9.48;5.30;;;9.90;99.90;;;;;;5019841;28;20095;-44
2022/06/14 01:06:50;;;;;;;7.57;4.72;;;9.90;99.90;;;;;;5035076;28;20060;-43
2022/06/14 01:09:21;;;;;;;9.68;4.65;;;9.90;99.90;;;;;;4940097;29;20055;-43
2022/06/14 01:11:53;;;;;;;8.60;4.38;;;9.90;99.90;;;;;;4937798;28;20082;-44
2022/06/14 01:14:26;;;;;;;14.27;5.55;;;9.90;99.90;;;;;;4917174;29;20549;-43
2022/06/14 01:16:52;;;;;;;12.85;4.43;;;9.80;99.90;;;;;;4940021;29;20055;-44
2022/06/14 01:19:22;;;;;;;10.90;5.32;;;9.80;99.90;;;;;;4939168;29;20055;-45
2022/06/14 01:22:02;;;;;;;8.18;4.35;;;9.80;99.90;;;;;;4923424;29;20087;-43
2022/06/14 01:24:28;;;;;;;10.65;4.82;;;9.80;99.90;;;;;;4939857;29;20118;-44
2022/06/14 01:26:55;;;;;;;6.95;4.22;;;9.80;99.90;;;;;;4938742;29;20122;-45
2022/06/14 01:29:22;;;;;;;6.32;3.78;;;9.70;99.90;;;;;;4940523;29;20062;-44
2022/06/14 01:31:49;;;;;;;8.35;3.85;;;9.70;99.90;;;;;;4940283;29;20122;-44
2022/06/14 01:34:16;;;;;;;6.22;4.32;;;9.70;99.90;;;;;;4942487;29;20057;-46
2022/06/14 01:36:42;;;;;;;5.25;3.22;;;9.70;99.90;;;;;;4942822;29;20051;-45
2022/06/14 01:39:15;;;;;;;7.88;3.35;;;9.60;99.90;;;;;;4939916;29;20075;-44
2022/06/14 01:41:59;;;;;;;6.55;3.70;;;9.60;99.90;;;;;;4939113;28;20110;-44
2022/06/14 01:44:43;;;;;;;12.07;3.92;;;9.60;99.90;;;;;;4922676;29;20482;-43
2022/06/14 01:47:31;;;;;;;10.98;4.28;;;9.60;99.90;;;;;;5016708;28;20083;-43
2022/06/14 01:53:15;;;;;;;9.00;4.05;;;9.50;99.90;;;;;;5039864;28;20602;-43
2022/06/14 01:55:44;;;;;;;10.30;3.83;;;9.50;99.90;;;;;;5040176;28;20045;-44
2022/06/14 01:58:25;;;;;;;8.02;3.92;;;9.50;99.90;;;;;;5021838;28;20114;-44
2022/06/14 02:01:00;;;;;;;13.32;4.38;;;9.50;99.90;;;;;;5039872;28;20060;-43
2022/06/14 02:06:32;;;;;;;7.90;4.07;;;9.50;99.90;;;;;;5040724;28;20044;-43
2022/06/14 02:09:11;;;;;;;9.02;3.90;;;9.50;99.90;;;;;;5040740;28;20045;-45
2022/06/14 02:11:37;;;;;;;9.95;4.00;;;9.50;99.90;;;;;;5040858;28;20107;-44
2022/06/14 02:14:26;;;;;;;9.10;3.70;;;9.40;99.90;;;;;;5039758;28;20320;-44
2022/06/14 02:17:04;;;;;;;8.82;3.70;;;9.40;99.90;;;;;;5039314;28;20511;-45
2022/06/14 02:19:45;;;;;;;8.02;4.05;;;9.40;99.90;;;;;;5041028;28;20250;-43
2022/06/14 02:22:35;;;;;;;9.13;3.80;;;9.40;99.90;;;;;;5040808;28;20314;-43
2022/06/14 02:25:15;;;;;;;9.55;3.78;;;9.40;99.90;;;;;;5039319;28;20134;-43
2022/06/14 02:27:50;;;;;;;12.50;5.22;;;9.40;99.90;;;;;;5040421;28;20072;-45
2022/06/14 02:30:24;;;;;;;10.68;3.45;;;9.40;99.90;;;;;;5040242;28;20563;-44
2022/06/14 02:33:17;;;;;;;10.13;3.70;;;9.40;99.90;;;;;;5039877;28;20165;-44
2022/06/14 02:36:00;;;;;;;9.75;4.05;;;9.30;99.90;;;;;;5039913;28;20052;-46
2022/06/14 02:38:36;;;;;;;13.27;4.15;;;9.30;99.90;;;;;;5040338;28;20094;-44
2022/06/14 02:41:32;;;;;;;9.82;3.78;;;9.30;99.90;;;;;;5032848;28;20053;-42
2022/06/14 02:44:20;;;;;;;11.35;4.03;;;9.30;99.90;;;;;;5021948;28;20052;-45
2022/06/14 02:46:52;;;;;;;11.25;4.35;;;9.20;99.90;;;;;;5039363;28;20416;-45
2022/06/14 02:49:23;;;;;;;10.52;4.05;;;9.20;99.90;;;;;;5043254;28;20048;-46
2022/06/14 02:52:29;;;;;;;9.45;3.75;;;9.30;99.90;;;;;;5040781;28;20106;-43
2022/06/14 02:55:04;;;;;;;8.85;3.83;;;9.30;99.90;;;;;;4959163;28;20256;-44
2022/06/14 02:57:32;;;;;;;10.27;4.22;;;9.30;99.90;;;;;;4961105;28;20089;-44
2022/06/14 03:00:33;;;;;;;9.55;4.63;;;9.30;99.90;;;;;;4962553;28;20247;-44
2022/06/14 03:03:11;;;;;;;10.25;3.65;;;9.20;99.90;;;;;;4885550;29;20056;-43
2022/06/14 03:05:49;;;;;;;12.68;4.55;;;9.20;99.90;;;;;;4884438;29;20138;-44
2022/06/14 03:08:50;;;;;;;8.07;4.55;;;9.30;99.90;;;;;;4882947;29;20428;-44
2022/06/14 03:11:33;;;;;;;12.70;4.82;;;9.30;99.90;;;;;;4870317;29;20484;-44
2022/06/14 03:14:05;;;;;;;7.30;3.97;;;9.30;99.90;;;;;;4885480;29;20473;-43
2022/06/14 03:16:45;;;;;;;7.43;4.57;;;9.40;99.90;;;;;;4884686;29;20075;-43
2022/06/14 03:19:38;;;;;;;7.00;4.18;;;9.40;99.90;;;;;;4885239;29;20096;-43
2022/06/14 03:22:45;;;;;;;10.73;4.28;;;9.40;99.90;;;;;;4882992;29;20541;-44
2022/06/14 03:25:10;;;;;;;7.80;3.85;;;9.40;99.90;;;;;;4884944;29;20068;-43
2022/06/14 03:27:46;;;;;;;8.13;4.32;;;9.40;99.90;;;;;;4884748;29;20071;-43
2022/06/14 03:30:26;;;;;;;9.88;3.85;;;9.40;99.90;;;;;;4885604;29;20056;-45
2022/06/14 03:33:02;;;;;;;14.50;5.32;;;9.50;99.90;;;;;;4921763;29;20423;-43
2022/06/14 03:35:33;;;;;;;8.82;4.75;;;9.50;99.90;;;;;;4916721;29;20446;-43
2022/06/14 03:38:03;;;;;;;12.35;5.15;;;9.50;99.90;;;;;;4923131;29;20048;-42
2022/06/14 03:40:28;;;;;;;10.63;5.07;;;9.50;99.90;;;;;;5017263;28;20060;-43
2022/06/14 03:42:54;;;;;;;11.27;5.30;;;9.50;99.90;;;;;;5042700;28;20045;-43
2022/06/14 03:45:28;;;;;;;9.88;4.93;;;9.60;99.90;;;;;;5042332;28;20045;-44
2022/06/14 03:47:53;;;;;;;11.68;5.15;;;9.60;99.90;;;;;;5042398;28;20451;-44
2022/06/14 03:50:29;;;;;;;11.43;4.78;;;9.70;99.90;;;;;;5043143;28;20053;-43
2022/06/14 03:53:13;;;;;;;10.40;5.15;;;9.70;99.90;;;;;;5024987;28;20056;-43
2022/06/14 03:55:57;;;;;;;12.27;5.05;;;9.70;99.90;;;;;;5042322;28;20049;-43
2022/06/14 03:58:47;;;;;;;10.18;4.75;;;9.80;99.90;;;;;;5038563;28;20140;-44
2022/06/14 04:01:21;;;;;;;8.65;4.25;;;9.80;99.90;;;;;;5043956;28;20144;-43
2022/06/14 04:04:12;;;;;;;10.32;4.85;;;9.90;99.90;;;;;;5044533;28;20057;-45
2022/06/14 04:07:39;;;;;;;10.63;5.45;;;9.90;99.90;;;;;;5043682;28;20045;-48
2022/06/14 04:10:18;;;;;;;10.00;4.72;;;10.10;99.90;;;;;;4979902;28;20042;-45
2022/06/14 04:13:00;;;;;;;7.57;4.88;;;10.30;99.90;;;;;;4980256;28;20068;-43
2022/06/14 04:15:47;;;;;;;9.38;4.32;;;10.80;99.90;;;;;;4963334;28;20241;-44
2022/06/14 04:18:35;;;;;;;6.00;4.28;;;11.30;99.90;;;;;;4979078;28;20248;-43
2022/06/14 04:21:13;;;;;;;10.85;4.50;;;11.40;99.90;;;;;;4974076;28;20053;-43
2022/06/14 04:23:47;;;;;;;8.45;3.85;;;11.60;99.90;;;;;;4979018;28;20046;-43
2022/06/14 04:26:37;;;;;;;6.53;4.15;;;11.90;99.90;;;;;;4978844;28;20058;-44
2022/06/14 04:29:18;;;;;;;10.27;4.00;;;12.30;99.90;;;;;;4977419;28;20046;-44
2022/06/14 04:32:10;;;;;;;7.93;3.95;;;12.60;99.90;;;;;;4961639;28;20101;-43
2022/06/14 04:34:39;;;;;;;7.55;3.55;;;12.80;99.90;;;;;;4975736;28;20069;-46
2022/06/14 04:37:08;;;;;;;7.93;4.13;;;13.00;99.90;;;;;;4958655;28;20059;-43
2022/06/14 04:40:01;;;;;;;6.38;4.13;;;13.20;99.90;;;;;;4965765;28;20047;-45
2022/06/14 04:42:38;;;;;;;9.10;3.90;;;13.50;99.90;;;;;;4962391;28;20050;-43
2022/06/14 04:45:25;;;;;;;8.75;4.10;;;13.60;99.90;;;;;;5031852;28;20506;-44
2022/06/14 04:48:06;;;;;;;8.98;4.10;;;13.60;99.90;;;;;;5040588;28;20193;-44
2022/06/14 04:50:38;;;;;;;7.53;3.92;;;13.80;99.90;;;;;;5040703;28;20053;-43
2022/06/14 04:53:17;;;;;;;8.15;3.70;;;14.10;99.90;;;;;;5041336;28;20045;-44
2022/06/14 04:56:03;;;;;;;9.77;4.03;;;14.30;99.90;;;;;;5040889;28;20060;-44
2022/06/14 04:58:42;;;;;;;6.53;4.05;;;14.60;99.90;;;;;;5040963;28;20049;-46
2022/06/14 05:01:22;;;;;;;7.72;3.10;;;15.10;99.90;;;;;;5041035;28;20053;-45
2022/06/14 05:04:04;;;;;;;6.97;3.13;;;15.30;99.90;;;;;;5022902;28;20052;-49
2022/06/14 05:06:42;;;;;;;6.65;3.50;;;15.60;99.90;;;;;;5040602;28;20056;-44
2022/06/14 05:09:35;;;;;;;11.00;3.47;;;16.00;99.90;;;;;;5040850;28;20049;-46
2022/06/14 05:12:42;;;;;;;7.57;3.50;;;16.40;99.90;;;;;;5022108;28;20068;-44
2022/06/14 05:18:07;;;;;;;9.05;4.18;;;17.70;99.90;;;;;;5113661;27;20838;-45
2022/06/14 05:20:48;;;;;;;8.50;3.13;;;18.30;99.90;;;;;;5102270;28;20055;-45
2022/06/14 05:23:51;;;;;;;7.95;3.88;;;18.70;99.90;;;;;;5073156;28;20067;-53
2022/06/14 05:26:35;;;;;;;8.70;3.70;;;19.20;99.90;;;;;;5095094;28;20473;-45
2022/06/14 05:29:17;;;;;;;7.32;4.07;;;19.60;99.90;;;;;;5080187;28;20051;-44
2022/06/14 05:31:49;;;;;;;8.70;4.15;;;20.00;99.90;;;;;;5098479;28;20135;-47
2022/06/14 05:34:43;;;;;;;9.40;3.90;;;20.30;99.90;;;;;;5097487;28;20128;-45
2022/06/14 05:37:37;;;;;;;7.00;3.83;;;20.80;99.90;;;;;;5096104;28;20460;-46
2022/06/14 05:40:31;;;;;;;9.85;3.78;;;21.20;99.90;;;;;;5014342;28;20204;-44
2022/06/14 05:43:24;;;;;;;12.00;3.92;;;21.80;99.90;;;;;;4998421;28;20053;-46
2022/06/14 05:45:56;;;;;;;8.05;3.95;;;22.20;99.90;;;;;;4990907;28;20107;-45
2022/06/14 05:48:31;;;;;;;7.90;3.70;;;23.00;99.90;;;;;;4994507;28;20058;-48
2022/06/14 05:50:59;;;;;;;7.72;3.47;;;23.30;99.90;;;;;;5014140;28;20065;-45
2022/06/14 05:53:34;;;;;;;9.73;4.40;;;23.90;99.30;;;;;;5013770;28;20938;-46
2022/06/14 05:56:31;;;;;;;10.38;4.70;;;24.20;98.40;;;;;;4998102;28;20049;-46
2022/06/14 05:59:42;;;;;;;8.27;3.80;;;25.10;96.80;;;;;;5007396;28;20188;-44
2022/06/14 06:02:27;;;;;;;10.77;4.40;;;25.50;95.30;;;;;;4974628;28;20058;-45
2022/06/14 06:05:05;;;;;;;8.65;3.58;;;25.80;95.00;;;;;;4974328;28;20065;-46
2022/06/14 06:07:36;;;;;;;6.85;3.75;;;26.00;94.20;;;;;;4973663;28;20082;-45
2022/06/14 06:10:16;;;;;;;10.05;3.60;;;26.00;93.90;;;;;;4974209;28;20211;-45
2022/06/14 06:13:07;;;;;;;6.55;3.70;;;26.40;93.40;;;;;;4974565;28;20098;-45
2022/06/14 06:15:36;;;;;;;8.30;3.17;;;26.20;92.80;;;;;;4957611;28;20054;-44
2022/06/14 06:18:14;;;;;;;6.82;2.80;;;26.50;92.70;;;;;;5010784;28;20068;-44
2022/06/14 06:20:55;;;;;;;7.47;2.47;;;26.90;92.00;;;;;;5011379;28;20564;-45
2022/06/14 06:23:43;;;;;;;7.10;2.80;;;27.20;91.00;;;;;;5012187;28;20119;-45
2022/06/14 06:26:12;;;;;;;9.90;2.70;;;27.70;90.80;;;;;;5010590;28;20054;-46
2022/06/14 06:28:44;;;;;;;6.38;3.25;;;27.90;90.30;;;;;;5005162;28;20157;-46
2022/06/14 06:31:23;;;;;;;8.32;2.70;;;28.20;90.30;;;;;;5001798;28;20061;-45
2022/06/14 06:33:52;;;;;;;9.35;3.08;;;28.70;88.70;;;;;;4997066;28;20050;-45
2022/06/14 06:36:52;;;;;;;8.27;2.42;;;28.70;87.80;;;;;;5000852;28;20478;-46
2022/06/14 06:39:31;;;;;;;6.68;2.30;;;28.80;84.90;;;;;;5022638;28;20540;-54
2022/06/14 06:42:04;;;;;;;5.60;1.90;;;28.50;85.50;;;;;;5058980;28;20487;-46
2022/06/14 06:44:48;;;;;;;7.10;2.40;;;28.80;83.00;;;;;;5063337;28;20056;-45
2022/06/14 06:47:41;;;;;;;5.68;2.40;;;28.80;83.10;;;;;;5062815;28;20060;-45
2022/06/14 06:50:23;;;;;;;6.63;2.45;;;28.90;83.30;;;;;;5056109;28;20451;-45
2022/06/14 06:53:06;;;;;;;7.00;2.22;;;29.10;81.60;;;;;;5060116;28;20092;-46
2022/06/14 06:55:35;;;;;;;6.03;2.10;;;29.10;82.00;;;;;;5060622;28;20052;-46
2022/06/14 06:58:05;;;;;;;5.57;2.22;;;29.00;82.00;;;;;;5058673;28;20047;-46
2022/06/14 07:00:34;;;;;;;7.40;2.45;;;29.50;81.70;;;;;;5061677;28;20499;-45
2022/06/14 07:03:25;;;;;;;4.90;2.08;;;29.10;81.00;;;;;;5061808;28;20052;-48
2022/06/14 07:06:01;;;;;;;6.40;2.30;;;28.80;80.50;;;;;;5059551;28;20049;-46
2022/06/14 07:08:52;;;;;;;8.05;2.92;;;28.90;81.60;;;;;;5061224;28;20502;-46
2022/06/14 07:11:21;;;;;;;6.90;2.58;;;29.10;81.50;;;;;;5059155;28;20410;-46
2022/06/14 07:13:47;;;;;;;5.07;2.00;;;29.40;80.10;;;;;;5058114;28;20488;-46
2022/06/14 07:16:23;;;;;;;6.85;2.65;;;29.20;81.20;;;;;;5060352;28;20127;-47
2022/06/14 07:18:54;;;;;;;5.82;2.42;;;29.50;81.10;;;;;;5081517;28;20572;-46
2022/06/14 07:21:26;;;;;;;5.82;2.58;;;29.10;79.70;;;;;;5081352;28;20426;-45
2022/06/14 07:24:08;;;;;;;7.85;3.45;;;27.90;79.80;;;;;;5082217;28;20055;-45
2022/06/14 07:26:44;;;;;;;7.25;2.53;;;26.60;81.70;;;;;;5081758;28;20128;-46
2022/06/14 07:29:43;;;;;;;6.85;3.03;;;26.00;84.30;;;;;;5078444;28;20048;-46
2022/06/14 07:32:37;;;;;;;7.03;2.35;;;25.90;84.60;;;;;;5081907;28;20502;-45
2022/06/14 07:35:03;;;;;;;6.70;2.70;;;25.70;85.40;;;;;;5082307;28;20515;-46
2022/06/14 07:37:43;;;;;;;6.47;2.72;;;25.00;85.10;;;;;;5082019;28;20043;-46
2022/06/14 07:40:21;;;;;;;4.90;2.58;;;24.80;86.30;;;;;;5060295;28;20045;-47
2022/06/14 07:43:11;;;;;;;4.70;2.20;;;24.80;86.60;;;;;;5076009;28;20054;-46
2022/06/14 07:45:45;;;;;;;6.28;2.20;;;24.40;85.60;;;;;;5082055;28;20052;-46
2022/06/14 07:48:39;;;;;;;6.60;2.33;;;23.70;86.80;;;;;;5081529;28;20051;-45
2022/06/14 07:51:14;;;;;;;6.47;2.58;;;22.90;86.70;;;;;;5082465;28;20044;-45
2022/06/14 07:53:40;;;;;;;5.57;2.30;;;22.10;88.50;;;;;;5064781;28;20474;-46
2022/06/14 07:56:09;;;;;;;4.57;2.33;;;21.40;90.40;;;;;;5085464;28;20056;-46
2022/06/14 07:58:57;;;;;;;7.20;2.30;;;20.70;91.20;;;;;;5082051;28;20142;-50
2022/06/14 08:01:32;;;;;;;7.35;2.42;;;20.30;93.30;;;;;;5081285;28;20506;-48
2022/06/14 08:04:10;;;;;;;5.20;2.22;;;20.80;91.70;;;;;;5080993;28;20089;-46
2022/06/14 08:06:40;;;;;;;4.20;2.28;;;21.20;92.10;;;;;;5081648;28;20190;-45
2022/06/14 08:09:20;;;;;;;7.35;2.30;;;21.80;91.40;;;;;;5081423;28;20532;-47
2022/06/14 08:11:58;;;;;;;4.18;1.92;;;22.00;90.60;;;;;;5081821;28;20627;-46
2022/06/14 08:14:47;;;;;;;3.65;2.17;;;22.40;91.10;;;;;;5081575;28;20522;-46
2022/06/14 08:17:22;;;;;;;4.07;2.20;;;22.50;89.90;;;;;;5081087;28;20094;-45
2022/06/14 08:20:01;;;;;;;4.40;2.00;;;22.50;89.10;;;;;;5071905;28;20044;-45
2022/06/14 08:22:39;;;;;;;5.00;2.70;;;22.60;88.60;;;;;;5081107;28;20166;-46
2022/06/14 08:25:13;;;;;;;5.63;2.30;;;22.80;89.40;;;;;;5075274;28;20044;-47
2022/06/14 08:27:47;;;;;;;6.47;2.10;;;22.70;89.80;;;;;;5076510;28;20062;-45
2022/06/14 08:30:26;;;;;;;7.15;2.45;;;22.90;89.20;;;;;;5054662;28;20109;-44
2022/06/14 08:32:58;;;;;;;5.18;2.13;;;22.90;90.80;;;;;;5062170;28;20044;-45
2022/06/14 08:35:36;;;;;;;3.17;1.75;;;23.10;90.10;;;;;;5057805;28;20059;-45
2022/06/14 08:38:11;;;;;;;2.65;1.50;;;22.90;88.90;;;;;;5080458;28;20048;-46
2022/06/14 08:41:05;;;;;;;5.05;2.10;;;22.50;89.00;;;;;;5074137;28;20124;-46
2022/06/14 08:44:26;;;;;;;5.75;2.58;;;22.40;89.10;;;;;;5079986;28;20259;-46
2022/06/14 08:47:04;;;;;;;4.55;2.10;;;22.50;90.40;;;;;;4956219;28;20445;-45
2022/06/14 08:49:42;;;;;;;4.70;1.67;;;22.60;90.60;;;;;;4965335;28;20057;-45
2022/06/14 08:52:37;;;;;;;3.65;1.58;;;22.90;90.80;;;;;;4971488;28;20619;-46
2022/06/14 08:55:44;;;;;;;2.35;1.40;;;23.30;90.10;;;;;;4976682;28;20065;-46
2022/06/14 08:58:19;;;;;;;4.47;1.90;;;23.40;89.90;;;;;;4977194;28;20058;-47
2022/06/14 09:01:10;;;;;;;4.53;2.08;;;23.60;90.00;;;;;;4941894;28;20497;-45
2022/06/14 09:04:07;;;;;;;5.63;1.60;;;23.40;90.10;;;;;;4956230;28;20059;-47
2022/06/14 09:06:39;;;;;;;5.97;2.85;;;23.00;90.10;;;;;;4969341;28;20043;-47
2022/06/14 09:09:41;;;;;;;5.95;2.45;;;22.70;90.00;;;;;;4974148;28;20121;-47
2022/06/14 09:12:19;;;;;;;3.25;2.08;;;22.50;90.10;;;;;;4973746;28;20061;-46
2022/06/14 09:15:09;;;;;;;4.85;2.53;;;22.20;90.90;;;;;;4975400;28;20642;-45
2022/06/14 09:17:58;;;;;;;6.43;2.33;;;22.20;92.00;;;;;;4979536;28;20066;-47
2022/06/14 09:20:30;;;;;;;7.43;1.77;;;22.40;91.20;;;;;;4976133;28;20905;-46
2022/06/14 09:23:17;;;;;;;3.72;1.70;;;22.30;91.70;;;;;;5014330;28;20049;-50
2022/06/14 09:25:51;;;;;;;4.85;1.73;;;22.20;90.90;;;;;;5014665;28;20201;-44
2022/06/14 09:28:25;;;;;;;5.30;2.15;;;22.20;91.50;;;;;;5012815;28;20061;-46
2022/06/14 09:31:19;;;;;;;5.18;1.67;;;22.00;91.50;;;;;;5016100;28;20600;-45
2022/06/14 09:34:11;;;;;;;4.93;2.10;;;21.80;90.40;;;;;;5016358;28;20057;-45
2022/06/14 09:36:43;;;;;;;4.07;1.40;;;21.50;91.90;;;;;;5036739;28;20495;-48
2022/06/14 09:39:18;;;;;;;5.20;2.20;;;21.60;90.70;;;;;;5030711;28;20617;-45
2022/06/14 09:42:01;;;;;;;6.15;2.20;;;21.50;90.90;;;;;;5053000;28;20590;-46
2022/06/14 09:44:49;;;;;;;5.00;2.28;;;21.90;91.30;;;;;;5049470;28;20044;-45
2022/06/14 09:47:39;;;;;;;3.80;1.90;;;22.10;92.00;;;;;;5060106;28;20525;-46
2022/06/14 09:50:58;;;;;;;3.70;1.90;;;22.40;91.10;;;;;;5044742;28;20463;-46
2022/06/14 09:53:30;;;;;;;6.20;2.15;;;22.40;90.40;;;;;;4977206;28;20464;-46
2022/06/14 09:56:15;;;;;;;8.57;2.55;;;22.20;91.30;;;;;;4980833;28;20535;-43
2022/06/14 09:59:11;;;;;;;5.38;1.95;;;22.10;91.40;;;;;;4974742;28;20055;-42
2022/06/14 10:01:43;;;;;;;6.30;2.20;;;21.60;91.30;;;;;;4973725;28;20054;-45
2022/06/14 10:04:22;;;;;;;4.57;2.08;;;21.50;92.10;;;;;;4974709;28;20046;-46
2022/06/14 10:07:15;;;;;;;9.02;2.50;;;21.30;92.10;;;;;;4987201;28;20058;-45
2022/06/14 10:10:08;;;;;;;5.30;2.60;;;21.10;93.60;;;;;;4985064;28;20082;-45
2022/06/14 10:13:00;;;;;;;4.43;2.00;;;21.00;91.60;;;;;;4981023;28;20165;-47
2022/06/14 10:15:41;;;;;;;3.15;1.73;;;21.00;93.50;;;;;;4977262;28;20062;-47
2022/06/14 10:18:37;;;;;;;5.18;2.00;;;20.70;93.10;;;;;;4977797;28;20093;-45
2022/06/14 10:21:15;;;;;;;5.55;2.20;;;20.60;94.20;;;;;;4985051;28;20181;-45
2022/06/14 10:23:40;;;;;;;5.70;2.03;;;20.50;93.70;;;;;;4967828;28;20078;-45
2022/06/14 10:30:04;;;;;;;4.80;1.95;;;20.50;93.80;;;;;;5084642;28;20069;-45
2022/06/14 10:32:48;;;;;;;7.03;2.20;;;20.50;94.60;;;;;;5080649;28;20100;-45
2022/06/14 10:35:57;;;;;;;5.70;1.90;;;20.50;94.50;;;;;;5084018;28;20052;-49
2022/06/14 10:38:40;;;;;;;6.55;2.55;;;20.50;93.70;;;;;;5003590;28;20062;-46
2022/06/14 10:41:32;;;;;;;4.75;1.98;;;20.30;94.00;;;;;;4995376;28;20212;-46
2022/06/14 10:44:18;;;;;;;4.65;2.13;;;20.40;94.80;;;;;;5004536;28;20188;-46
2022/06/14 10:46:57;;;;;;;3.95;1.83;;;20.30;94.20;;;;;;4989414;28;20126;-48
2022/06/14 10:50:01;;;;;;;4.85;2.60;;;20.40;94.50;;;;;;5007596;28;20103;-52
2022/06/14 10:52:30;;;;;;;5.90;2.47;;;20.30;96.00;;;;;;4929928;29;20470;-44
2022/06/14 10:55:07;;;;;;;4.82;2.40;;;20.40;95.20;;;;;;4941949;29;20518;-44
2022/06/14 10:57:43;;;;;;;3.97;1.55;;;20.40;94.50;;;;;;4943071;28;20094;-45
2022/06/14 11:00:20;;;;;;;5.57;2.05;;;20.10;95.40;;;;;;4931729;28;21253;-45
2022/06/14 11:03:07;;;;;;;5.57;1.88;;;20.20;93.90;;;;;;4960772;28;20058;-45
2022/06/14 11:05:48;;;;;;;5.10;2.00;;;20.20;94.80;;;;;;4959730;28;20057;-46
2022/06/14 11:08:19;;;;;;;7.35;2.50;;;20.10;95.60;;;;;;4952962;28;20058;-45
2022/06/14 11:11:09;;;;;;;4.18;2.47;;;20.10;94.70;;;;;;4928954;28;20055;-46
2022/06/14 11:13:38;;;;;;;5.45;2.83;;;20.00;95.50;;;;;;4916527;28;20063;-48
2022/06/14 11:16:21;;;;;;;4.78;2.00;;;19.90;95.80;;;;;;4935299;28;20084;-45
2022/06/14 11:19:03;;;;;;;3.08;1.85;;;20.00;95.90;;;;;;4953001;28;20055;-45
2022/06/14 11:21:40;;;;;;;4.95;1.85;;;20.30;96.50;;;;;;4977892;28;20061;-45
2022/06/14 11:24:24;;;;;;;5.35;2.00;;;20.80;96.70;;;;;;4987362;28;20049;-45
2022/06/14 11:27:08;;;;;;;5.47;2.50;;;21.20;95.90;;;;;;5045949;28;20507;-45
2022/06/14 11:29:37;;;;;;;3.30;2.00;;;21.30;94.40;;;;;;5081894;28;20632;-47
2022/06/14 11:32:31;;;;;;;4.97;1.90;;;21.30;94.40;;;;;;5081917;28;20159;-46
2022/06/14 11:35:26;;;;;;;4.47;1.95;;;21.20;93.30;;;;;;5081705;28;20537;-45
2022/06/14 11:38:03;;;;;;;6.03;2.00;;;21.20;94.70;;;;;;5081017;28;20043;-45
2022/06/14 11:40:32;;;;;;;3.00;1.63;;;21.30;93.50;;;;;;5063406;28;20056;-47
2022/06/14 11:43:14;;;;;;;4.05;1.92;;;21.20;94.80;;;;;;5081693;28;20410;-48
2022/06/14 11:45:57;;;;;;;4.45;1.83;;;21.20;94.50;;;;;;5081467;28;20044;-46
2022/06/14 11:48:36;;;;;;;3.90;1.60;;;21.30;95.10;;;;;;5082202;28;20051;-45
2022/06/14 11:51:10;;;;;;;3.88;2.00;;;21.40;93.20;;;;;;5080700;28;20078;-46
2022/06/14 11:53:50;;;;;;;6.07;2.50;;;21.60;92.70;;;;;;5079179;28;20402;-46
2022/06/14 11:56:29;;;;;;;6.10;1.88;;;21.50;92.00;;;;;;5077575;28;20036;-46
2022/06/14 11:59:32;;;;;;;4.32;2.08;;;21.60;94.80;;;;;;5078978;28;20080;-46
2022/06/14 12:02:09;;;;;;;4.07;1.60;;;21.60;93.40;;;;;;5080873;28;20044;-46
2022/06/14 12:05:09;;;;;;;7.20;2.30;;;21.70;93.80;;;;;;5056508;28;20132;-45
2022/06/14 12:07:41;;;;;;;3.63;1.63;;;22.00;92.50;;;;;;5084292;28;20391;-45
2022/06/14 12:10:19;;;;;;;3.33;1.60;;;22.20;92.40;;;;;;5083601;28;20046;-49
2022/06/14 12:12:48;;;;;;;4.57;2.38;;;22.20;93.00;;;;;;5079469;28;20140;-51
2022/06/14 12:15:54;;;;;;;4.25;1.77;;;22.10;92.80;;;;;;5082413;28;20048;-48
2022/06/14 12:18:23;;;;;;;6.50;2.38;;;22.20;91.90;;;;;;5061487;28;20048;-44
2022/06/14 12:21:19;;;;;;;4.45;1.75;;;22.20;92.00;;;;;;5061141;28;20053;-47
2022/06/14 12:23:50;;;;;;;4.30;2.13;;;22.40;92.20;;;;;;5043393;28;20079;-45
2022/06/14 12:26:36;;;;;;;4.32;1.92;;;22.40;91.90;;;;;;5060318;28;20068;-46
2022/06/14 12:29:33;;;;;;;3.53;1.52;;;22.50;91.40;;;;;;5042075;28;20486;-46
2022/06/14 12:31:59;;;;;;;4.57;2.20;;;22.50;91.20;;;;;;5060690;28;20133;-45
2022/06/14 12:34:35;;;;;;;3.53;1.80;;;22.30;92.40;;;;;;5059775;28;20056;-45
2022/06/14 12:37:38;;;;;;;4.00;1.88;;;22.40;92.00;;;;;;5053172;28;20059;-45
2022/06/14 12:40:15;;;;;;;4.93;2.08;;;22.40;93.10;;;;;;5050691;28;20063;-46
2022/06/14 12:43:05;;;;;;;8.27;2.38;;;22.20;92.10;;;;;;5059480;28;20106;-47
2022/06/14 12:45:43;;;;;;;2.40;1.52;;;22.10;91.50;;;;;;5056803;28;20048;-47
2022/06/14 12:48:37;;;;;;;5.85;2.00;;;22.10;92.20;;;;;;5061092;28;20056;-46
2022/06/14 12:51:13;;;;;;;3.50;1.60;;;22.10;91.50;;;;;;5061347;28;20070;-45
2022/06/14 12:53:55;;;;;;;3.80;1.77;;;22.10;92.20;;;;;;5061497;28;20036;-46
2022/06/14 12:56:36;;;;;;;6.43;2.30;;;22.10;92.10;;;;;;5060795;28;20052;-45
2022/06/14 12:59:15;;;;;;;3.17;1.60;;;22.10;92.00;;;;;;5060585;28;20486;-48
2022/06/14 13:01:59;;;;;;;3.63;1.70;;;22.10;92.00;;;;;;5059564;28;20407;-45
2022/06/14 13:04:33;;;;;;;3.35;1.98;;;22.10;91.30;;;;;;5059402;28;20044;-46
2022/06/14 13:07:40;;;;;;;4.25;1.73;;;22.10;91.90;;;;;;5059496;28;20534;-45
2022/06/14 13:10:28;;;;;;;5.20;1.70;;;22.20;92.00;;;;;;5048660;28;20049;-48
2022/06/14 13:13:15;;;;;;;3.72;2.17;;;22.10;91.80;;;;;;5057670;28;20748;-45
2022/06/14 13:16:14;;;;;;;4.93;2.33;;;22.30;91.80;;;;;;5060309;28;20478;-48
2022/06/14 13:19:18;;;;;;;6.55;1.88;;;22.40;92.20;;;;;;5056615;28;20044;-45
2022/06/14 13:21:58;;;;;;;4.07;1.85;;;22.50;91.20;;;;;;5055134;28;20052;-46
2022/06/14 13:24:43;;;;;;;5.75;2.30;;;22.50;91.00;;;;;;5043785;28;20055;-45
2022/06/14 13:27:22;;;;;;;5.63;2.03;;;22.50;91.40;;;;;;5042265;28;20086;-48
2022/06/14 13:29:58;;;;;;;2.97;1.63;;;22.50;90.50;;;;;;5043084;28;20060;-47
2022/06/14 13:32:25;;;;;;;7.57;2.08;;;22.60;90.60;;;;;;5062534;28;20056;-45
2022/06/14 13:34:51;;;;;;;3.17;1.58;;;22.40;91.20;;;;;;5062181;28;20052;-49
2022/06/14 13:37:44;;;;;;;5.28;2.13;;;22.50;90.80;;;;;;5060326;28;20059;-47
2022/06/14 13:40:26;;;;;;;4.32;1.60;;;22.60;89.70;;;;;;5064878;28;20052;-45
2022/06/14 13:43:01;;;;;;;3.10;1.80;;;22.60;90.20;;;;;;5063568;28;20561;-45
2022/06/14 13:45:52;;;;;;;3.38;1.48;;;22.50;89.40;;;;;;5064540;28;20459;-46
2022/06/14 13:48:27;;;;;;;3.28;1.60;;;22.40;90.20;;;;;;5064036;28;20643;-46
2022/06/14 13:51:19;;;;;;;4.03;1.63;;;22.40;92.20;;;;;;5063296;28;20575;-44
2022/06/14 13:53:58;;;;;;;5.75;2.10;;;22.40;90.00;;;;;;5063811;28;20375;-45
2022/06/14 13:56:30;;;;;;;4.22;1.88;;;22.40;90.90;;;;;;5062542;28;20114;-45
2022/06/14 13:59:14;;;;;;;4.32;2.00;;;22.40;91.50;;;;;;5045207;28;20056;-45
2022/06/14 14:02:16;;;;;;;3.15;2.05;;;22.50;90.70;;;;;;5064025;28;20048;-48
2022/06/14 14:04:42;;;;;;;5.68;2.20;;;22.50;90.40;;;;;;5004347;28;20065;-45
2022/06/14 14:07:25;;;;;;;4.07;1.80;;;22.50;91.70;;;;;;5020428;28;20073;-46
2022/06/14 14:10:10;;;;;;;4.53;1.90;;;22.40;91.50;;;;;;5019784;28;20420;-45